Tiempo atmosférico en la estación meteorológica de Arcos de Jalón, Soria (863 m.)



Fecha
DESCASC
Temp. máxima en grados centígrados (hora)
DESCASC
Temp. mínima en grados centígrados (hora)
DESCASC
Temp. media en grados centígrados
DESCASC
Racha de viento máxima en m/sg (hora)
DESCASC
Velocidad máxima media en intervalos de 10 minutos(hora)
DESCASC
Precipitaciones diarias en mm
DESCASC
Precipitaciones de 00:00 a 06:00 en mm
DESCASC
Precipitaciones de 06:00 a 12:00 en mm
DESCASC
Precipitaciones de 12:00 a 18:00 en mm
DESCASC
Precipitaciones de 18:00 a 24:00 en mm
DESCASC
23-06-2019 33.3 (17:10) 17.4 (01:10) 25.3 12.22 (15:20) 7.5 (14:00) 0 0 0 0 0
22-06-2019 30.2 (16:30) 8.6 (06:20) 19.4 10.83 (16:40) 6.11 (18:20) 0 0 0 0 0
21-06-2019 25.1 (15:00) 14.1 (06:50) 19.6 8.06 (22:20) 5.28 (23:10) 0.2 0 0 0.2 0
20-06-2019 27.8 (18:20) 13 (00:00) 20.4 10.83 (21:40) 6.39 (19:50) 0 0 0 0 0
19-06-2019 27.8 (17:00) 12.8 (00:00) 20.3 12.78 (17:00) 7.78 (15:30) 0 0 0 0 0
18-06-2019 30.2 (16:50) 17.8 (00:00) 24 16.67 (15:00) 10.83 (15:00) 0 0 0 0 0
17-06-2019 31.2 (17:50) 13.4 (00:00) 22.3 10.28 (16:30) 6.11 (16:30) 0 0 0 0 0
16-06-2019 29.4 (18:10) 6.7 (00:00) 18 8.89 (16:00) 5.83 (18:20) 0 0 0 0 0
15-06-2019 25.2 (18:20) 9.1 (00:00) 17.2 10 (00:10) 6.67 (00:10) 0 0 0 0 0
14-06-2019 25.6 (15:40) 14.7 (00:00) 20.2 15 (18:20) 9.72 (17:10) 0 0 0 0 0
13-06-2019 -- (--) -- (--) -- -- (--) -- (--) -- 0 -- -- 0
12-06-2019 22.4 (19:50) 2.7 (00:00) 12.5 10.28 (16:20) 5.56 (15:00) 0 0 0 0 0
11-06-2019 14.8 (17:10) 8.6 (00:00) 11.7 16.67 (14:30) 4.72 (14:20) 3 0 0 3 0
10-06-2019 23 (17:30) 8.3 (00:00) 15.7 11.39 (14:10) 6.11 (13:50) 0 0 0 0 0
09-06-2019 26.7 (18:00) 12.1 (00:00) 19.4 11.67 (14:10) 8.33 (17:40) 0 0 0 0 0
08-06-2019 24.2 (15:50) 3.6 (00:00) 13.9 8.61 (16:20) 5 (14:20) 0 0 0 0 0
07-06-2019 19.6 (18:10) 7.4 (00:00) 13.5 14.72 (03:10) 10 (03:20) 4.6 3.2 1.4 0 0
06-06-2019 22.9 (18:10) 6 (00:00) 14.4 15.83 (18:20) 10.83 (19:20) 0 0 0 0 0
05-06-2019 18.6 (00:00) 10 (00:00) 14.3 15.83 (10:30) 10.83 (11:00) 4.2 3 1.2 0 0
04-06-2019 29.3 (16:30) 16.6 (00:00) 22.9 17.5 (14:10) 11.39 (15:30) 0 0 0 0 0
03-06-2019 31.9 (17:30) 16.7 (00:00) 24.3 15.28 (15:10) 10.56 (16:10) 0 0 0 0 0
02-06-2019 32.2 (17:10) 11.8 (00:00) 22 13.06 (23:00) 8.06 (22:50) 0 0 0 0 0
01-06-2019 31.8 (18:20) 9.4 (00:00) 20.6 6.39 (14:50) 3.89 (02:50) 0 0 0 0 0
31-05-2019 29.2 (17:20) 10 (00:00) 19.6 7.78 (20:30) 5 (04:30) 0 0 0 0 0
30-05-2019 26.9 (16:40) 6.5 (00:00) 16.7 8.33 (15:40) 4.44 (18:20) 0 0 0 0 0
29-05-2019 19.9 (16:20) 3.6 (00:00) 11.7 10 (16:30) 4.72 (16:40) 0 0 0 0 0
28-05-2019 19.3 (15:40) 5 (00:00) 12.1 10 (18:10) 6.11 (18:10) 0 0 0 0 0
27-05-2019 -- (--) -- (--) -- -- (--) -- (--) -- -- -- -- 0

Gráficas

Temp. máximas Temp. mínimas Temp. medias Precipitaciones Rachas de viento máximas Velocidades máximas media en intervalos de 10 minutos

Datos horarios

Fecha y hora oficial Temperatura (ºC) Velocidad del viento (km/h) Dirección del viento Racha (km/h) Dirección de racha Precipitación (mm) Presión (hPa) Tendencia (hPa) Humedad (%)
2019-06-25 23:00:00 25.9 0 Calma 12 Noroeste 0 -- -- 45
2019-06-25 22:00:00 28.9 5 Norte 26 Nordeste 0 -- -- 40
2019-06-25 21:00:00 31.2 11 Nordeste 26 Nordeste 0 -- -- 37
2019-06-25 20:00:00 32.2 16 Nordeste 31 Nordeste 0 -- -- 34
2019-06-25 19:00:00 32.5 14 Nordeste 28 Nordeste 0 -- -- 34
2019-06-25 18:00:00 32.9 13 Nordeste 27 Sur 0 -- -- 32
2019-06-25 17:00:00 33.6 15 Sur 34 Sur 0 -- -- 26
2019-06-25 16:00:00 33.9 14 Sur 32 Sur 0 -- -- 26
2019-06-25 15:00:00 33.6 20 Sur 34 Sur 0 -- -- 26
2019-06-25 14:00:00 31.1 14 Sudeste 29 Este 0 -- -- 31
2019-06-25 13:00:00 29.1 8 Nordeste 16 Norte 0 -- -- 38
2019-06-25 12:00:00 26.1 8 Nordeste 17 Nordeste 0 -- -- 44
2019-06-25 11:00:00 23.7 8 Nordeste 14 Este 0 -- -- 50
2019-06-25 10:00:00 21 3 Nordeste 8 Nordeste 0 -- -- 58
2019-06-25 09:00:00 18.3 3 Sudoeste 10 Sudoeste 0 -- -- 66
2019-06-25 08:00:00 15.8 8 Sudoeste 11 Sudoeste 0 -- -- 74
2019-06-25 07:00:00 14 7 Sudoeste 10 Sudoeste 0 -- -- 77
2019-06-25 06:00:00 14.5 8 Sudoeste 13 Sudoeste 0 -- -- 76
2019-06-25 05:00:00 15.2 8 Sudoeste 13 Sudoeste 0 -- -- 73
2019-06-25 04:00:00 16.4 10 Sudoeste 17 Sudoeste 0 -- -- 71
2019-06-25 03:00:00 17.3 7 Sudoeste 17 Sudoeste 0 -- -- 68
2019-06-25 02:00:00 18.5 14 Sudoeste 23 Sudoeste 0 -- -- 64
2019-06-25 01:00:00 19.5 10 Sudoeste 25 Oeste 0 -- -- 59
2019-06-25 00:00:00 21.9 10 Oeste 28 Oeste 0 -- -- 50
2019-06-24 23:00:00 24.1 3 Sudoeste 6 Noroeste 0 -- -- 41
2019-06-24 22:00:00 26.3 3 Noroeste 12 Sudoeste 0 -- -- 36
2019-06-24 21:00:00 28.4 8 Sudoeste 23 Sur 0 -- -- 32
2019-06-24 20:00:00 29.7 13 Sur 22 Sudoeste 0 -- -- 29
2019-06-24 19:00:00 30.4 17 Sur 33 Sur 0 -- -- 28
2019-06-24 18:00:00 31 13 Sur 30 Sur 0 -- -- 27
2019-06-24 17:00:00 30 15 Sur 24 Sudoeste 0 -- -- 29
2019-06-24 16:00:00 29.2 11 Sur 23 Sudoeste 0 -- -- 30
2019-06-24 15:00:00 27.5 19 Sudoeste 27 Sudoeste 0 -- -- 32
2019-06-24 14:00:00 27.1 13 Sudoeste 21 Sudoeste 0 -- -- 33
2019-06-24 13:00:00 26.4 9 Sur 25 Sudoeste 0 -- -- 32
2019-06-24 12:00:00 26.1 10 Sudeste 23 Sur 0 -- -- 32
2019-06-24 11:00:00 24.8 4 Norte 13 Este 0 -- -- 33
2019-06-24 10:00:00 22.1 9 Nordeste 14 Nordeste 0 -- -- 40
2019-06-24 09:00:00 20.1 2 Nordeste 11 Oeste 0 -- -- 44
2019-06-24 08:00:00 17.6 3 Norte 10 Oeste 0 -- -- 50
2019-06-24 07:00:00 16.6 7 Sudoeste 9 Oeste 0 -- -- 52
2019-06-24 06:00:00 17.8 6 Sudoeste 13 Sur 0 -- -- 49
2019-06-24 05:00:00 20.4 0 Calma 23 Sur 0 -- -- 44
2019-06-24 04:00:00 22.1 12 Sur 18 Sudoeste 0 -- -- 40
2019-06-24 03:00:00 21.6 9 Sudoeste 17 Oeste 0 -- -- 44
2019-06-24 02:00:00 20.8 14 Oeste 18 Oeste 0 -- -- 44
2019-06-24 01:00:00 21.3 2 Noroeste 18 Oeste 0 -- -- 43
2019-06-24 00:00:00 21.3 12 Sudoeste 15 Sudoeste 0 -- -- 42
2019-06-23 23:00:00 23 3 Sudoeste 10 Sudoeste 0 -- -- 39
2019-06-23 22:00:00 25.8 8 Oeste 14 Sudoeste 0 -- -- 35
2019-06-23 21:00:00 29.8 9 Sudoeste 21 Sudoeste 0 -- -- 29
2019-06-23 20:00:00 30.9 16 Sudoeste 30 Sur 0 -- -- 27
2019-06-23 19:00:00 31.6 14 Sudoeste 32 Sur 0 -- -- 26
2019-06-23 18:00:00 32.8 17 Sur 37 Sur 0 -- -- 24
2019-06-23 17:00:00 33 25 Sur 42 Sur 0 -- -- 24
2019-06-23 16:00:00 32.1 17 Sur 44 Sudoeste 0 -- -- 26
2019-06-23 15:00:00 31.7 24 Sur 43 Sur 0 -- -- 26
2019-06-23 14:00:00 30.9 27 Sur 42 Sur 0 -- -- 28
2019-06-23 13:00:00 29.8 21 Sur 35 Sudoeste 0 -- -- 29
2019-06-23 12:00:00 28.2 13 Sudeste 30 Sur 0 -- -- 32
2019-06-23 11:00:00 26.8 13 Sur 22 Sur 0 -- -- 36
2019-06-23 10:00:00 24.5 11 Sudeste 21 Sudeste 0 -- -- 40
2019-06-23 09:00:00 22.8 3 Nordeste 14 Sudoeste 0 -- -- 48
2019-06-23 08:00:00 19.7 13 Sudoeste 21 Sudoeste 0 -- -- 57
2019-06-23 07:00:00 18.7 13 Oeste 19 Oeste 0 -- -- 60
2019-06-23 06:00:00 19.6 10 Sudoeste 19 Oeste 0 -- -- 58
2019-06-23 05:00:00 20.6 11 Sur 26 Sur 0 -- -- 55
2019-06-23 04:00:00 20.8 16 Sur 24 Sur 0 -- -- 53
2019-06-23 03:00:00 20.7 17 Sur 28 Sur 0 -- -- 49
2019-06-23 02:00:00 19 17 Oeste 23 Oeste 0 -- -- 38
2019-06-23 01:00:00 17.5 13 Sudoeste 19 Oeste 0 -- -- 44
2019-06-23 00:00:00 18.3 10 Sudoeste 15 Oeste 0 -- -- 42
2019-06-22 23:00:00 20.4 7 Sudoeste 10 Oeste 0 -- -- 38
2019-06-22 22:00:00 24.4 5 Sudoeste 15 Sudoeste 0 -- -- 31
2019-06-22 21:00:00 27.7 6 Sur 23 Sur 0 -- -- 26
2019-06-22 20:00:00 28.7 15 Sur 29 Sur 0 -- -- 26
2019-06-22 19:00:00 29.2 10 Sur 39 Sur 0 -- -- 27
2019-06-22 18:00:00 29.7 19 Sur 34 Sur 0 -- -- 28
2019-06-22 17:00:00 29.5 20 Sur 39 Sur 0 -- -- 28
2019-06-22 16:00:00 30 17 Sur 32 Sudoeste 0 -- -- 25
2019-06-22 15:00:00 29 15 Sur 34 Sur 0 -- -- 28
2019-06-22 14:00:00 28.3 16 Sudoeste 34 Sur 0 -- -- 29
2019-06-22 13:00:00 26.8 19 Sur 31 Sur 0 -- -- 32
2019-06-22 12:00:00 23.4 8 Nordeste 14 Este 0 -- -- 48
2019-06-22 11:00:00 19.9 6 Nordeste 12 Nordeste 0 -- -- 54
2019-06-22 10:00:00 17.4 4 Nordeste 8 Este 0 -- -- 59
2019-06-22 09:00:00 15.5 4 Nordeste 6 Sudoeste 0 -- -- 66
2019-06-22 08:00:00 11.5 6 Sudoeste 10 Sudoeste 0 -- -- 81
2019-06-22 07:00:00 8.8 8 Sudoeste 12 Sudoeste 0 -- -- 85
2019-06-22 06:00:00 8.9 7 Sudoeste 13 Sudoeste 0 -- -- 83
2019-06-22 05:00:00 9.5 8 Sudoeste 12 Sudoeste 0 -- -- 82
2019-06-22 04:00:00 10.6 9 Sudoeste 12 Sudoeste 0 -- -- 79
2019-06-22 03:00:00 11.3 4 Sudoeste 6 Sudoeste 0 -- -- 76
2019-06-22 02:00:00 12.6 0 Calma 4 Nordeste 0 -- -- 72
2019-06-22 01:00:00 14.4 3 Nordeste 19 Noroeste 0 -- -- 67
2019-06-22 00:00:00 15.1 13 Noroeste 29 Noroeste 0 -- -- 64
2019-06-21 23:00:00 16.7 17 Noroeste 29 Noroeste 0 -- -- 59
2019-06-21 22:00:00 18.5 8 Noroeste 21 Nordeste 0 -- -- 55
2019-06-21 21:00:00 20.9 12 Nordeste 23 Nordeste 0 -- -- 53
2019-06-21 20:00:00 21.9 14 Nordeste 23 Nordeste 0 -- -- 50
2019-06-21 19:00:00 22.5 14 Nordeste 25 Nordeste 0 -- -- 49
2019-06-21 18:00:00 22.4 15 Nordeste 26 Nordeste 0 -- -- 47
2019-06-21 17:00:00 21.7 13 Nordeste 28 Noroeste 0.2 -- -- 56
2019-06-21 16:00:00 24.1 13 Nordeste 23 Nordeste 0 -- -- 41
2019-06-21 15:00:00 25.1 11 Noroeste 28 Norte 0 -- -- 40
2019-06-21 14:00:00 22.9 10 Nordeste 26 Nordeste 0 -- -- 44
2019-06-21 13:00:00 22.2 8 Norte 22 Nordeste 0 -- -- 47
2019-06-21 12:00:00 21.1 9 Nordeste 22 Norte 0 -- -- 50
2019-06-21 11:00:00 20.3 10 Norte 21 Norte 0 -- -- 54
2019-06-21 10:00:00 18.3 6 Norte 14 Norte 0 -- -- 62
2019-06-21 09:00:00 17.5 2 Norte 8 Nordeste 0 -- -- 65
2019-06-21 08:00:00 15.8 4 Norte 8 Noroeste 0 -- -- 70
2019-06-21 07:00:00 14.1 2 Nordeste 14 Noroeste 0 -- -- 75
2019-06-21 06:00:00 14.8 10 Noroeste 18 Noroeste 0 -- -- 74
2019-06-21 05:00:00 15 10 Noroeste 18 Noroeste 0 -- -- 75
2019-06-21 04:00:00 15.5 11 Noroeste 18 Norte 0 -- -- 72
2019-06-21 03:00:00 15.6 10 Noroeste 22 Noroeste 0 -- -- 73
2019-06-21 02:00:00 16.7 11 Norte 19 Norte 0 -- -- 71
2019-06-21 01:00:00 17 6 Norte 12 Nordeste 0 -- -- 69
2019-06-21 00:00:00 16.6 5 Norte 25 Noroeste 0 -- -- 68
2019-06-20 23:00:00 17.4 13 Noroeste 29 Noroeste 0 -- -- 66
2019-06-20 22:00:00 19.4 15 Noroeste 39 Oeste 0 -- -- 60
2019-06-20 21:00:00 24.9 15 Sudoeste 29 Sur 0 -- -- 44
2019-06-20 20:00:00 26.4 21 Sur 37 Sudoeste 0 -- -- 30
2019-06-20 19:00:00 27.2 19 Sudoeste 35 Sudoeste 0 -- -- 28
2019-06-20 18:00:00 27.1 17 Sur 29 Sur 0 -- -- 29
2019-06-20 17:00:00 26.7 14 Sur 25 Sur 0 -- -- 29
2019-06-20 16:00:00 26.1 12 Sudeste 29 Sudeste 0 -- -- 30
2019-06-20 15:00:00 25.4 9 Nordeste 18 Nordeste 0 -- -- 38
2019-06-20 14:00:00 26.3 7 Oeste 20 Oeste 0 -- -- 37
2019-06-20 13:00:00 25 6 Noroeste 17 Norte 0 -- -- 42
2019-06-20 12:00:00 23 8 Nordeste 17 Nordeste 0 -- -- 48
2019-06-20 11:00:00 22.1 8 Este 14 Nordeste 0 -- -- 49
2019-06-20 10:00:00 19.7 3 Sur 6 Sur 0 -- -- 55
2019-06-20 09:00:00 16.8 2 Sur 8 Sudoeste 0 -- -- 62
2019-06-20 08:00:00 14.7 5 Oeste 11 Oeste 0 -- -- 68
2019-06-20 07:00:00 13.5 6 Sudoeste 11 Sudoeste 0 -- -- 70
2019-06-20 06:00:00 13.7 8 Sudoeste 12 Sudoeste 0 -- -- 69
2019-06-20 05:00:00 13 9 Sudoeste 13 Sudoeste 0 -- -- 69
2019-06-20 04:00:00 14.7 7 Sudoeste 15 Sudoeste 0 -- -- 62
2019-06-20 03:00:00 15.9 7 Sudoeste 14 Oeste 0 -- -- 61
2019-06-20 02:00:00 16.6 6 Sudoeste 14 Sudoeste 0 -- -- 58
2019-06-20 01:00:00 18.2 9 Oeste 14 Oeste 0 -- -- 53
2019-06-20 00:00:00 19.2 10 Oeste 17 Oeste 0 -- -- 50
2019-06-19 23:00:00 19.5 4 Sudoeste 13 Sudoeste 0 -- -- 47
2019-06-19 22:00:00 20.9 12 Sudoeste 24 Sudoeste 0 -- -- 44
2019-06-19 21:00:00 24.7 14 Sudoeste 33 Sudoeste 0 -- -- 35
2019-06-19 20:00:00 26.6 21 Sur 42 Sudoeste 0 -- -- 32
2019-06-19 19:00:00 27.2 22 Sur 37 Sudoeste 0 -- -- 32
2019-06-19 18:00:00 27.6 19 Sudoeste 39 Sudoeste 0 -- -- 32
2019-06-19 17:00:00 27.8 22 Sudoeste 46 Sudoeste 0 -- -- 32
2019-06-19 16:00:00 26.7 26 Sudoeste 42 Sudoeste 0 -- -- 34
2019-06-19 15:00:00 25.3 18 Sudoeste 39 Sur 0 -- -- 36
2019-06-19 14:00:00 24.8 23 Sur 40 Sudoeste 0 -- -- 37
2019-06-19 13:00:00 24.9 20 Sur 39 Sudoeste 0 -- -- 39
2019-06-19 12:00:00 22.9 20 Sudoeste 39 Sur 0 -- -- 45
2019-06-19 11:00:00 22.3 23 Sudoeste 33 Sudoeste 0 -- -- 46
2019-06-19 10:00:00 20.9 14 Sur 23 Sudoeste 0 -- -- 52
2019-06-19 09:00:00 19.2 10 Sudoeste 15 Sudoeste 0 -- -- 54
2019-06-19 08:00:00 15 6 Sudoeste 13 Oeste 0 -- -- 59
2019-06-19 07:00:00 13.2 4 Sudoeste 11 Oeste 0 -- -- 60
2019-06-19 06:00:00 13.1 9 Oeste 15 Sudoeste 0 -- -- 61
2019-06-19 05:00:00 12.8 11 Sudoeste 15 Sudoeste 0 -- -- 59
2019-06-19 04:00:00 14.7 10 Oeste 17 Oeste 0 -- -- 50
2019-06-19 03:00:00 15 9 Sudoeste 15 Sudoeste 0 -- -- 47
2019-06-19 02:00:00 15.2 10 Sudoeste 16 Sudoeste 0 -- -- 43
2019-06-19 01:00:00 17.9 9 Oeste 21 Oeste 0 -- -- 35
2019-06-19 00:00:00 18.3 11 Oeste 14 Oeste 0 -- -- 31
2019-06-18 23:00:00 22 10 Sudoeste 29 Sudoeste 0 -- -- 23
2019-06-18 22:00:00 23.2 16 Sudoeste 27 Sudoeste 0 -- -- 20
2019-06-18 21:00:00 27.2 23 Sudoeste 39 Sudoeste 0 -- -- 18
2019-06-18 20:00:00 28.7 27 Sur 50 Sudoeste 0 -- -- 21
2019-06-18 19:00:00 -- -- -- -- -- -- -- -- --
2019-06-18 18:00:00 30 27 Sur 50 Sudoeste 0 -- -- 22
2019-06-18 17:00:00 30.1 26 Sur 57 Sur 0 -- -- 20
2019-06-18 16:00:00 29.5 32 Sur 56 Sur 0 -- -- 19
2019-06-18 15:00:00 29.1 39 Sur 60 Sudoeste 0 -- -- 19
2019-06-18 14:00:00 28.4 31 Sur 55 Sur 0 -- -- 22
2019-06-18 13:00:00 27.5 29 Sur 46 Sur 0 -- -- 23
2019-06-18 12:00:00 26.7 24 Sur 45 Sudoeste 0 -- -- 27
2019-06-18 11:00:00 25.3 21 Sur 34 Sudoeste 0 -- -- 27
2019-06-18 10:00:00 22.4 14 Sur 22 Sur 0 -- -- 33
2019-06-18 09:00:00 21.2 19 Sur 31 Sur 0 -- -- 39
2019-06-18 08:00:00 20.1 11 Sur 22 Sur 0 -- -- 42
2019-06-18 07:00:00 19 2 Noroeste -- -- -- -- -- 43
2019-06-18 06:00:00 18.6 6 Sudoeste 24 Oeste 0 -- -- 40
2019-06-18 05:00:00 18.3 10 Sudoeste 21 Oeste 0 -- -- 37
2019-06-18 04:00:00 18.1 16 Oeste 20 Oeste 0 -- -- 36
2019-06-18 03:00:00 20.4 10 Sudoeste 15 Sudeste 0 -- -- 32
2019-06-18 02:00:00 20.5 3 Sudeste 21 Sudoeste 0 -- -- 32
2019-06-18 01:00:00 20.6 5 Sudoeste 9 Sudoeste 0 -- -- 34
2019-06-18 00:00:00 21.3 4 Sudoeste 8 Sudoeste 0 -- -- 32
2019-06-17 23:00:00 22.3 5 Sudoeste 16 Sudoeste 0 -- -- 30
2019-06-17 22:00:00 24.4 8 Sudoeste 19 Sur 0 -- -- 26
2019-06-17 21:00:00 27 12 Sur 28 Sur 0 -- -- 21
2019-06-17 20:00:00 29.7 17 Sudoeste 26 Sur 0 -- -- 19
2019-06-17 19:00:00 30.5 14 Sur 31 Sur 0 -- -- 17
2019-06-17 18:00:00 31.2 13 Sur 31 Sudoeste 0 -- -- 17
2019-06-17 17:00:00 30.8 19 Sur 37 Sudoeste 0 -- -- 19
2019-06-17 16:00:00 30.4 12 Sur 35 Sudoeste 0 -- -- 20
2019-06-17 15:00:00 29.7 15 Sudeste 33 Sur 0 -- -- 21
2019-06-17 14:00:00 29.4 11 Sur 28 Sur 0 -- -- 19
2019-06-17 13:00:00 28.4 11 Sur 26 Sur 0 -- -- 25
2019-06-17 12:00:00 26.6 4 Sudeste 13 Sudoeste 0 -- -- 29
2019-06-17 11:00:00 24.3 3 Oeste 8 Norte 0 -- -- 38
2019-06-17 10:00:00 21.6 5 Nordeste 10 Nordeste 0 -- -- 45
2019-06-17 09:00:00 18.7 7 Nordeste 12 Sudoeste 0 -- -- 50
2019-06-17 08:00:00 16.4 8 Sudoeste 19 Oeste 0 -- -- 60
2019-06-17 07:00:00 13.6 12 Oeste 16 Sudoeste 0 -- -- 66
2019-06-17 06:00:00 14.4 12 Sudoeste 15 Sudoeste 0 -- -- 61
2019-06-17 05:00:00 16.2 9 Sudoeste 21 Sudoeste 0 -- -- 56
2019-06-17 04:00:00 17.9 14 Sudoeste 30 Sudoeste 0 -- -- 48
2019-06-17 03:00:00 18.9 16 Oeste 22 Sur 0 -- -- 46
2019-06-17 02:00:00 19.6 14 Sudoeste 25 Sudoeste 0 -- -- 40
2019-06-17 01:00:00 18.4 11 Sudoeste 17 Sudoeste 0 -- -- 40
2019-06-17 00:00:00 19.6 9 Oeste 15 Sudoeste 0 -- -- 36
2019-06-16 23:00:00 20.7 13 Sudoeste 24 Sur 0 -- -- 32
2019-06-16 22:00:00 24.1 14 Sudoeste 25 Sur 0 -- -- 26
2019-06-16 21:00:00 26.5 16 Sur 24 Sur 0 -- -- 21
2019-06-16 20:00:00 28 12 Sur 30 Sur 0 -- -- 21
2019-06-16 19:00:00 28.6 15 Sur 31 Sur 0 -- -- 22
2019-06-16 18:00:00 29.3 15 Sudoeste 30 Sur 0 -- -- 23
2019-06-16 17:00:00 28.2 11 Sur 32 Sur 0 -- -- 25
2019-06-16 16:00:00 28.2 20 Sudoeste 32 Sudoeste 0 -- -- 22
2019-06-16 15:00:00 27.9 14 Sur 28 Sur 0 -- -- 21
2019-06-16 14:00:00 26.3 9 Sur 22 Sur 0 -- -- 25
2019-06-16 13:00:00 24.3 8 Este 16 Nordeste 0 -- -- 32
2019-06-16 12:00:00 22 9 Nordeste 15 Este 0 -- -- 39
2019-06-16 11:00:00 19.2 6 Nordeste 12 Nordeste 0 -- -- 44
2019-06-16 10:00:00 17 4 Norte 11 Nordeste 0 -- -- 50
2019-06-16 09:00:00 14.1 2 Nordeste 5 Este 0 -- -- 59
2019-06-16 08:00:00 9.7 0 Calma 9 Sudoeste 0 -- -- 75
2019-06-16 07:00:00 6.7 5 Sudoeste 10 Sudoeste 0 -- -- 80
2019-06-16 06:00:00 7.6 4 Sudoeste 7 Sudoeste 0 -- -- 77
2019-06-16 05:00:00 8.4 4 Sudoeste 6 Sudoeste 0 -- -- 75
2019-06-16 04:00:00 8.9 2 Sudoeste 7 Sudoeste 0 -- -- 71
2019-06-16 03:00:00 9.9 0 Calma 4 Sudoeste 0 -- -- 68
2019-06-16 02:00:00 11.5 0 Calma 6 Norte 0 -- -- 63
2019-06-16 01:00:00 14.2 2 Norte 12 Noroeste 0 -- -- 56
2019-06-16 00:00:00 15.4 6 Noroeste 14 Norte 0 -- -- 53
2019-06-15 23:00:00 18 8 Nordeste 23 Norte 0 -- -- 44
2019-06-15 22:00:00 19.5 7 Noroeste 14 Oeste 0 -- -- 35
2019-06-15 21:00:00 22.8 5 Noroeste 16 Noroeste 0 -- -- 30
2019-06-15 20:00:00 23.9 10 Noroeste 20 Oeste 0 -- -- 28
2019-06-15 19:00:00 24.7 5 Noroeste 21 Sudoeste 0 -- -- 26
2019-06-15 18:00:00 25.1 7 Noroeste 22 Oeste 0 -- -- 25
2019-06-15 17:00:00 23.7 5 Nordeste 25 Sudoeste 0 -- -- 28
2019-06-15 16:00:00 23.2 8 Sudeste 22 Oeste 0 -- -- 29
2019-06-15 15:00:00 22.7 8 Sudoeste 27 Oeste 0 -- -- 29
2019-06-15 14:00:00 21.4 11 Sudoeste 25 Oeste 0 -- -- 32
2019-06-15 13:00:00 20 12 Sudoeste 29 Sudoeste 0 -- -- 35
2019-06-15 12:00:00 19.1 9 Oeste 22 Oeste 0 -- -- 38
2019-06-15 11:00:00 17.5 10 Sudoeste 23 Oeste 0 -- -- 43
2019-06-15 10:00:00 16.1 4 Noroeste 11 Sudoeste 0 -- -- 48
2019-06-15 09:00:00 14.4 4 Norte 14 Sur 0 -- -- 53
2019-06-15 08:00:00 11.7 5 Sur 15 Sur 0 -- -- 61
2019-06-15 07:00:00 9.3 4 Sudoeste 14 Sur 0 -- -- 66
2019-06-15 06:00:00 9.4 3 Sur 15 Sudoeste 0 -- -- 62
2019-06-15 05:00:00 9.5 8 Sudoeste 15 Oeste 0 -- -- 58
2019-06-15 04:00:00 10 6 Sudoeste 14 Oeste 0 -- -- 55
2019-06-15 03:00:00 11.2 9 Oeste 13 Sudoeste 0 -- -- 51
2019-06-15 02:00:00 12.5 7 Sudoeste 17 Sudoeste 0 -- -- 47
2019-06-15 01:00:00 15.3 22 Sudoeste 36 Sudoeste 0 -- -- 38
2019-06-15 00:00:00 16.8 23 Sudoeste 45 Sudoeste 0 -- -- 34
2019-06-14 23:00:00 18.4 31 Sudoeste 42 Sur 0 -- -- 30
2019-06-14 22:00:00 19.7 26 Sur 40 Sur 0 -- -- 30
2019-06-14 21:00:00 21.8 24 Sur 42 Sudoeste 0 -- -- 27
2019-06-14 20:00:00 23.3 30 Sur 45 Sur 0 -- -- 21
2019-06-14 19:00:00 24.4 32 Sudoeste 54 Sudoeste 0 -- -- 22
2019-06-14 18:00:00 25.3 32 Sur 50 Sudoeste 0 -- -- 23
2019-06-14 17:00:00 25.5 31 Sur 51 Sur 0 -- -- 23
2019-06-14 16:00:00 25.5 32 Sudoeste 51 Sudoeste 0 -- -- 23
2019-06-14 15:00:00 25.4 32 Sur 51 Sur 0 -- -- 26
2019-06-14 14:00:00 24.5 19 Sur 41 Sur 0 -- -- 30
2019-06-14 13:00:00 23.5 25 Sur 42 Sur 0 -- -- 30
2019-06-14 12:00:00 23 16 Sur 37 Sudoeste 0 -- -- 37
2019-06-14 11:00:00 21.5 20 Sudoeste 32 Sudoeste 0 -- -- 37
2019-06-14 10:00:00 16.9 8 Nordeste 12 Nordeste 0 -- -- 64
2019-06-14 09:00:00 15.8 4 Norte 9 Nordeste 0 -- -- 65
2019-06-14 08:00:00 15 0 Calma 4 Norte 0 -- -- 68
2019-06-14 07:00:00 14.8 3 Norte 7 Nordeste 0 -- -- 66
2019-06-14 06:00:00 15.8 4 Nordeste 14 Sudoeste 0 -- -- 61
2019-06-14 05:00:00 16.1 11 Oeste 23 Sudoeste 0 -- -- 58
2019-06-14 04:00:00 16.1 15 Sudoeste 18 Sudoeste 0 -- -- 62
2019-06-14 03:00:00 15.7 4 Sur 15 Oeste 0 -- -- 63
2019-06-14 02:00:00 17.1 5 Oeste 12 Sudoeste 0 -- -- 62
2019-06-14 01:00:00 18 6 Sudoeste 12 Oeste 0 -- -- 55
2019-06-14 00:00:00 18.9 8 Oeste 12 Oeste 0 -- -- 51
2019-06-13 23:00:00 20.3 5 Sur 12 Sur 0 -- -- 46
2019-06-13 22:00:00 21.7 8 Sur 18 Sur 0 -- -- 41
2019-06-13 21:00:00 24.4 10 Sur 23 Sudeste 0 -- -- 34
2019-06-13 20:00:00 25.1 14 Sur 27 Sur 0 -- -- 33
2019-06-13 19:00:00 25.7 12 Sur 31 Sur 0 -- -- 33
2019-06-13 18:00:00 25.3 13 Sur 32 Sur 0 -- -- 34
2019-06-13 17:00:00 25.6 14 Sudeste 35 Sur 0 -- -- 34
2019-06-13 16:00:00 26 23 Sur 43 Sur 0 -- -- 33
2019-06-13 15:00:00 24.6 17 Sur -- -- -- -- -- 37
2019-06-13 14:00:00 -- -- -- -- -- -- -- -- --
2019-06-13 13:00:00 -- -- -- -- -- -- -- -- --
2019-06-13 12:00:00 -- -- -- -- -- -- -- -- --
2019-06-13 11:00:00 19.6 15 Sur 28 Sur 0 -- -- 49
2019-06-13 10:00:00 15.8 7 Nordeste 14 Nordeste 0 -- -- 59
2019-06-13 09:00:00 12.9 5 Nordeste 8 Este 0 -- -- 65
2019-06-13 08:00:00 9 0 Calma 5 Sudoeste 0 -- -- 78
2019-06-13 07:00:00 6 3 Sudoeste 5 Sudoeste 0 -- -- 82
2019-06-13 06:00:00 6.4 3 Sudoeste 9 Sudoeste 0 -- -- 77
2019-06-13 05:00:00 7.4 3 Sudoeste 9 Sudoeste 0 -- -- 75
2019-06-13 04:00:00 7.9 10 Sudoeste 14 Sudoeste 0 -- -- 72
2019-06-13 03:00:00 8.3 7 Sudoeste 15 Sudoeste 0 -- -- 68
2019-06-13 02:00:00 9.8 8 Oeste 15 Oeste 0 -- -- 61
2019-06-13 01:00:00 8.9 5 Sudoeste 10 Sudeste 0 -- -- 64
2019-06-13 00:00:00 10.6 2 Sudoeste 5 Sudoeste 0 -- -- 58
2019-06-12 23:00:00 13.4 2 Sudoeste 10 Sur 0 -- -- 47
2019-06-12 22:00:00 15.1 5 Oeste 15 Sudoeste 0 -- -- 39
2019-06-12 21:00:00 21.3 10 Sudoeste 21 Sudoeste 0 -- -- 25
2019-06-12 20:00:00 22 19 Sur 31 Sudoeste 0 -- -- 23
2019-06-12 19:00:00 21.9 10 Sur 27 Sur 0 -- -- 25
2019-06-12 18:00:00 21.7 13 Sur 30 Sudeste 0 -- -- 25
2019-06-12 17:00:00 21.4 14 Sur 37 Sudoeste 0 -- -- 26
2019-06-12 16:00:00 20.9 15 Sudoeste 36 Sur 0 -- -- 28
2019-06-12 15:00:00 20.5 20 Sur 36 Sur 0 -- -- 29
2019-06-12 14:00:00 19.5 17 Sudoeste 32 Sur 0 -- -- 32
2019-06-12 13:00:00 17.2 9 Sudeste 19 Sudoeste 0 -- -- 37
2019-06-12 12:00:00 15.4 5 Nordeste 13 Nordeste 0 -- -- 52
2019-06-12 11:00:00 13 5 Nordeste 9 Nordeste 0 -- -- 60
2019-06-12 10:00:00 10.5 5 Este 14 Norte 0 -- -- 69
2019-06-12 09:00:00 8.7 5 Nordeste 9 Nordeste 0 -- -- 74
2019-06-12 08:00:00 5.3 4 Oeste 12 Sudoeste 0 -- -- 85
2019-06-12 07:00:00 3 10 Sudoeste 15 Sudoeste 0 -- -- 89
2019-06-12 06:00:00 2.8 7 Sudoeste 12 Sudoeste 0 -- -- 89
2019-06-12 05:00:00 3.1 7 Sudoeste 11 Sudoeste 0 -- -- 87
2019-06-12 04:00:00 4 6 Sudoeste 12 Sudoeste 0 -- -- 86
2019-06-12 03:00:00 4.8 9 Sudoeste 13 Sudoeste 0 -- -- 85
2019-06-12 02:00:00 5.1 3 Sudoeste 5 Sudoeste 0 -- -- 84
2019-06-12 01:00:00 6.5 5 Sudoeste 7 Sudoeste 0 -- -- 78
2019-06-12 00:00:00 8.6 0 Calma 18 Noroeste 0 -- -- 68
2019-06-11 23:00:00 9.9 4 Noroeste 15 Noroeste 0 -- -- 62
2019-06-11 22:00:00 11.3 5 Noroeste 18 Noroeste 0 -- -- 59
2019-06-11 21:00:00 13.9 2 Norte 10 Nordeste 0 -- -- 52
2019-06-11 20:00:00 14.2 5 Nordeste 15 Nordeste 0 -- -- 50
2019-06-11 19:00:00 13.6 4 Nordeste 16 Este 0 -- -- 57
2019-06-11 18:00:00 11.7 9 Norte 37 Norte 0.8 -- -- 63
2019-06-11 17:00:00 14.6 4 Nordeste 10 Nordeste 0 -- -- 53
2019-06-11 16:00:00 11.7 6 Sudeste 12 Nordeste 1 -- -- 78
2019-06-11 15:00:00 9.6 8 Sur 60 Noroeste 1.2 -- -- 81
2019-06-11 14:00:00 12.4 13 Norte 26 Norte 0 -- -- 65
2019-06-11 13:00:00 11.8 6 Nordeste 18 Nordeste 0 -- -- 62
2019-06-11 12:00:00 10.7 9 Nordeste 20 Norte 0 -- -- 68
2019-06-11 11:00:00 8.7 8 Norte 21 Noroeste 0 -- -- 75
2019-06-11 10:00:00 9.1 9 Norte 20 Norte 0 -- -- 69
2019-06-11 09:00:00 9 8 Norte 26 Noroeste 0 -- -- 71
2019-06-11 08:00:00 9.3 11 Noroeste 23 Norte 0 -- -- 68
2019-06-11 07:00:00 9.1 6 Noroeste 12 Norte 0 -- -- 69
2019-06-11 06:00:00 10 8 Norte 17 Nordeste 0 -- -- 65
2019-06-11 05:00:00 10.4 10 Norte 24 Nordeste 0 -- -- 64
2019-06-11 04:00:00 10.9 10 Nordeste 23 Nordeste 0 -- -- 63
2019-06-11 03:00:00 11.4 13 Nordeste 21 Nordeste 0 -- -- 63
2019-06-11 02:00:00 12 9 Norte 16 Norte 0 -- -- 61
2019-06-11 01:00:00 12.5 9 Norte 15 Norte 0 -- -- 59
2019-06-11 00:00:00 13 9 Nordeste 17 Norte 0 -- -- 58
2019-06-10 23:00:00 13 10 Norte 33 Norte 0 -- -- 55
2019-06-10 22:00:00 15.3 15 Noroeste 30 Norte 0 -- -- 50
2019-06-10 21:00:00 18.8 7 Noroeste 30 Oeste 0 -- -- 34
2019-06-10 20:00:00 20.8 17 Noroeste 30 Oeste 0 -- -- 32
2019-06-10 19:00:00 20.8 19 Oeste 32 Oeste 0 -- -- 31
2019-06-10 18:00:00 22 18 Oeste 36 Oeste 0 -- -- 30
2019-06-10 17:00:00 22.4 19 Sudoeste 34 Sudoeste 0 -- -- 29
2019-06-10 16:00:00 22.7 21 Oeste 39 Oeste 0 -- -- 28
2019-06-10 15:00:00 22.1 17 Oeste 41 Oeste 0 -- -- 30
2019-06-10 14:00:00 20.7 17 Sudoeste 35 Sudoeste 0 -- -- 34
2019-06-10 13:00:00 20 15 Oeste 33 Oeste 0 -- -- 39
2019-06-10 12:00:00 18.6 13 Sudoeste 25 Oeste 0 -- -- 46
2019-06-10 11:00:00 17.1 4 Sudoeste 18 Nordeste 0 -- -- 57
2019-06-10 10:00:00 15.3 5 Sudoeste 13 Noroeste 0 -- -- 62
2019-06-10 09:00:00 13 3 Sudoeste 12 Sudoeste 0 -- -- 70
2019-06-10 08:00:00 10 3 Sudoeste 9 Sudoeste 0 -- -- 83
2019-06-10 07:00:00 8.6 9 Oeste 12 Sudoeste 0 -- -- 87
2019-06-10 06:00:00 8.5 5 Sudoeste 9 Sudoeste 0 -- -- 85
2019-06-10 05:00:00 9.2 3 Sudoeste 6 Oeste 0 -- -- 83
2019-06-10 04:00:00 10 2 Noroeste 8 Sur 0 -- -- 82
2019-06-10 03:00:00 11.7 3 Norte 14 Oeste 0 -- -- 77
2019-06-10 02:00:00 12.4 4 Noroeste 13 Oeste 0 -- -- 75
2019-06-10 01:00:00 13.1 3 Oeste 22 Norte 0 -- -- 73
2019-06-10 00:00:00 14.6 11 Norte 24 Norte 0 -- -- 69
2019-06-09 23:00:00 16.9 4 Norte 17 Noroeste 0 -- -- 60
2019-06-09 22:00:00 18.4 11 Oeste 17 Oeste 0 -- -- 38
2019-06-09 21:00:00 21.4 8 Oeste 25 Sudoeste 0 -- -- 34
2019-06-09 20:00:00 25.3 17 Sur 33 Sudoeste 0 -- -- 20
2019-06-09 19:00:00 26.1 22 Sudoeste 36 Sudoeste 0 -- -- 20
2019-06-09 18:00:00 26.7 26 Sudoeste 40 Sudoeste 0 -- -- 21
2019-06-09 17:00:00 26.5 22 Sur 36 Sudoeste 0 -- -- 24
2019-06-09 16:00:00 26.3 16 Sudoeste 39 Sur 0 -- -- 23
2019-06-09 15:00:00 25.4 26 Sudoeste 42 Sudoeste 0 -- -- 25
2019-06-09 14:00:00 24.7 28 Sudoeste 41 Sudoeste 0 -- -- 24
2019-06-09 13:00:00 24.1 24 Sudoeste 40 Sur 0 -- -- 30
2019-06-09 12:00:00 23 25 Sudoeste 38 Sudoeste 0 -- -- 33
2019-06-09 11:00:00 21.7 20 Sur 31 Sur 0 -- -- 39
2019-06-09 10:00:00 19.3 22 Sur 35 Sur 0 -- -- 50
2019-06-09 09:00:00 17.7 19 Sudoeste 30 Sur 0 -- -- 54
2019-06-09 08:00:00 14.7 16 Sudoeste 25 Sudoeste 0 -- -- 63
2019-06-09 07:00:00 13.7 13 Sudoeste 22 Sudoeste 0 -- -- 68
2019-06-09 06:00:00 12.6 11 Sudoeste 16 Sudoeste 0 -- -- 71
2019-06-09 05:00:00 12.7 9 Sudoeste 14 Sudoeste 0 -- -- 73
2019-06-09 04:00:00 12.1 9 Sudoeste 12 Sudoeste 0 -- -- 75
2019-06-09 03:00:00 12.7 6 Oeste 12 Sudoeste 0 -- -- 73
2019-06-09 02:00:00 13.2 8 Sudoeste 14 Sudoeste 0 -- -- 68
2019-06-09 01:00:00 13.7 9 Sudoeste 12 Sudoeste 0 -- -- 66
2019-06-09 00:00:00 14.6 3 Sudoeste 9 Sudoeste 0 -- -- 64
2019-06-08 23:00:00 17.2 2 Sudoeste 6 Norte 0 -- -- 56
2019-06-08 22:00:00 19.8 2 Nordeste 15 Norte 0 -- -- 48
2019-06-08 21:00:00 21.7 9 Nordeste 23 Nordeste 0 -- -- 43
2019-06-08 20:00:00 22.7 12 Nordeste 22 Nordeste 0 -- -- 40
2019-06-08 19:00:00 22.9 12 Nordeste 28 Norte 0 -- -- 40
2019-06-08 18:00:00 22.9 15 Nordeste 29 Nordeste 0 -- -- 39
2019-06-08 17:00:00 23.7 17 Nordeste 31 Nordeste 0 -- -- 37
2019-06-08 16:00:00 24.2 15 Nordeste 29 Nordeste 0 -- -- 35
2019-06-08 15:00:00 22.9 12 Nordeste 31 Nordeste 0 -- -- 35
2019-06-08 14:00:00 22.4 12 Nordeste 23 Nordeste 0 -- -- 36
2019-06-08 13:00:00 20.4 12 Norte 24 Nordeste 0 -- -- 38
2019-06-08 12:00:00 17.8 9 Nordeste 21 Nordeste 0 -- -- 44
2019-06-08 11:00:00 15.2 8 Nordeste 19 Norte 0 -- -- 52
2019-06-08 10:00:00 13 7 Nordeste 13 Nordeste 0 -- -- 58
2019-06-08 09:00:00 11.6 3 Nordeste 6 Nordeste 0 -- -- 59
2019-06-08 08:00:00 6.8 2 Sudoeste 6 Sudoeste 0 -- -- 77
2019-06-08 07:00:00 3.7 4 Sudoeste 6 Sudoeste 0 -- -- 82
2019-06-08 06:00:00 4.1 3 Sudoeste 12 Sudoeste 0 -- -- 79
2019-06-08 05:00:00 4.1 7 Sudoeste 15 Sudoeste 0 -- -- 79
2019-06-08 04:00:00 5.1 8 Sudoeste 12 Sudoeste 0 -- -- 75
2019-06-08 03:00:00 6 8 Sudoeste 17 Sudoeste 0 -- -- 71
2019-06-08 02:00:00 6.5 10 Sudoeste 13 Sudoeste 0 -- -- 72
2019-06-08 01:00:00 7.6 10 Oeste 14 Sudoeste 0 -- -- 69
2019-06-08 00:00:00 8.8 8 Sudoeste 13 Sudoeste 0 -- -- 63
2019-06-07 23:00:00 11.3 5 Sudoeste 13 Oeste 0 -- -- 56
2019-06-07 22:00:00 14.5 9 Oeste 18 Oeste 0 -- -- 40
2019-06-07 21:00:00 17 9 Oeste 22 Oeste 0 -- -- 36
2019-06-07 20:00:00 18.5 11 Noroeste 26 Oeste 0 -- -- 33
2019-06-07 19:00:00 19.3 13 Oeste 28 Oeste 0 -- -- 33
2019-06-07 18:00:00 19.4 14 Oeste 26 Oeste 0 -- -- 34
2019-06-07 17:00:00 18.2 14 Sudoeste 30 Oeste 0 -- -- 36
2019-06-07 16:00:00 18.7 8 Oeste 33 Oeste 0 -- -- 36
2019-06-07 15:00:00 18.3 21 Oeste 35 Sudoeste 0 -- -- 37
2019-06-07 14:00:00 16.6 17 Oeste 36 Sudoeste 0 -- -- 41
2019-06-07 13:00:00 15.8 16 Oeste 37 Oeste 0 -- -- 41
2019-06-07 12:00:00 14.4 21 Sudoeste 42 Oeste 0 -- -- 50
2019-06-07 11:00:00 12.8 23 Sudoeste 38 Sudoeste 0 -- -- 56
2019-06-07 10:00:00 11.3 27 Sudoeste 48 Sudoeste 0 -- -- 61
2019-06-07 09:00:00 10 27 Sudoeste 39 Sudoeste 0 -- -- 69
2019-06-07 08:00:00 8.1 17 Sudoeste 27 Sudoeste 0.2 -- -- 79
2019-06-07 07:00:00 7.8 14 Sudoeste 33 Sudoeste 1.2 -- -- 85
2019-06-07 06:00:00 7.7 22 Sudoeste 44 Oeste 3 -- -- 86
2019-06-07 05:00:00 11.4 19 Sudoeste 28 Oeste 0 -- -- 73
2019-06-07 04:00:00 12.8 18 Sur 53 Sudoeste 0.2 -- -- 68
2019-06-07 03:00:00 15.3 28 Sur 44 Sudoeste 0 -- -- 42
2019-06-07 02:00:00 15.6 22 Sur 41 Sur 0 -- -- 38
2019-06-07 01:00:00 16.4 19 Sur 39 Sudoeste 0 -- -- 35
2019-06-07 00:00:00 15.7 15 Sudoeste 26 Sudoeste 0 -- -- 36
2019-06-06 23:00:00 18 18 Sudoeste 39 Sudoeste 0 -- -- 32
2019-06-06 22:00:00 19.2 21 Sur 35 Sur 0 -- -- 30
2019-06-06 21:00:00 21.2 29 Sur 54 Sur 0 -- -- 27
2019-06-06 20:00:00 21.9 37 Sur 57 Sur 0 -- -- 26
2019-06-06 19:00:00 22.5 34 Sur 57 Sur 0 -- -- 26
2019-06-06 18:00:00 22.1 36 Sur 54 Sur 0 -- -- 27
2019-06-06 17:00:00 22.6 32 Sur 55 Sur 0 -- -- 27
2019-06-06 16:00:00 21.9 24 Sur 52 Sudeste 0 -- -- 29
2019-06-06 15:00:00 21.5 30 Sur 53 Sur 0 -- -- 28
2019-06-06 14:00:00 20.5 28 Sur 51 Sur 0 -- -- 30
2019-06-06 13:00:00 19.5 32 Sur 46 Sur 0 -- -- 31
2019-06-06 12:00:00 18.4 22 Sur 35 Sur 0 -- -- 38
2019-06-06 11:00:00 15.2 8 Nordeste 17 Nordeste 0 -- -- 54
2019-06-06 10:00:00 13.5 6 Nordeste 11 Norte 0 -- -- 68
2019-06-06 09:00:00 11 2 Norte 6 Nordeste 0 -- -- 77
2019-06-06 08:00:00 7.9 5 Sudoeste 9 Oeste 0 -- -- 87
2019-06-06 07:00:00 6 7 Sudoeste 13 Sudoeste 0 -- -- 89
2019-06-06 06:00:00 6.5 8 Sudoeste 10 Sudoeste 0 -- -- 87
2019-06-06 05:00:00 7.3 5 Sudoeste 6 Oeste 0 -- -- 85
2019-06-06 04:00:00 8.4 2 Sur 5 Noroeste 0 -- -- 82
2019-06-06 03:00:00 9.2 3 Noroeste 7 Norte 0 -- -- 79
2019-06-06 02:00:00 10.5 2 Nordeste 12 Norte 0 -- -- 75
2019-06-06 01:00:00 10.7 5 Norte 13 Norte 0 -- -- 73
2019-06-06 00:00:00 11.7 9 Nordeste 20 Norte 0 -- -- 69
2019-06-05 23:00:00 12.8 6 Norte 15 Oeste 0 -- -- 65
2019-06-05 22:00:00 14.6 9 Noroeste 22 Noroeste 0 -- -- 55
2019-06-05 21:00:00 17 6 Oeste 12 Noroeste 0 -- -- 38
2019-06-05 20:00:00 16.8 6 Noroeste 18 Oeste 0 -- -- 39
2019-06-05 19:00:00 17.3 5 Norte 24 Noroeste 0 -- -- 41
2019-06-05 18:00:00 16.9 14 Noroeste 33 Sudoeste 0 -- -- 44
2019-06-05 17:00:00 17.9 22 Sudoeste 39 Sudoeste 0 -- -- 41
2019-06-05 16:00:00 17.3 17 Oeste 43 Sudoeste 0 -- -- 48
2019-06-05 15:00:00 16.3 30 Sudoeste 48 Sudoeste 0 -- -- 43
2019-06-05 14:00:00 15.3 30 Sudoeste 48 Sudoeste 0 -- -- 51
2019-06-05 13:00:00 13.8 26 Oeste 42 Sudoeste 0 -- -- 60
2019-06-05 12:00:00 10.8 30 Oeste 56 Oeste 0 -- -- 72
2019-06-05 11:00:00 12 39 Sudoeste 57 Oeste 0 -- -- 67
2019-06-05 10:00:00 12.7 31 Sudoeste 44 Sudoeste 0 -- -- 74
2019-06-05 09:00:00 11.8 22 Sudoeste 35 Sudoeste 0 -- -- 79
2019-06-05 08:00:00 10.8 15 Sudoeste 30 Sudoeste 0.2 -- -- 85
2019-06-05 07:00:00 11.4 11 Sudoeste 39 Sudoeste 1 -- -- 85
2019-06-05 06:00:00 13.7 3 Sudoeste 12 Sudeste 0.2 -- -- 88
2019-06-05 05:00:00 13.8 0 Calma 5 Sudoeste 1.2 -- -- 85
2019-06-05 04:00:00 14.3 5 Sudoeste 13 Oeste 1 -- -- 83
2019-06-05 03:00:00 15.6 2 Oeste 10 Oeste 0 -- -- 72
2019-06-05 02:00:00 16.5 4 Oeste 29 Sudoeste 0.6 -- -- 65
2019-06-05 01:00:00 17.4 4 Sudoeste 14 Sudoeste 0 -- -- 53
2019-06-05 00:00:00 18.6 9 Sudoeste 30 Sudoeste 0 -- -- 48
2019-06-04 23:00:00 20.6 12 Sudoeste 25 Sudoeste 0 -- -- 37
2019-06-04 22:00:00 22 14 Sudoeste 30 Sudoeste 0 -- -- 31
2019-06-04 21:00:00 24.5 23 Sudoeste 44 Sudoeste 0 -- -- 30
2019-06-04 20:00:00 26.5 27 Sur 44 Sur 0 -- -- 30
2019-06-04 19:00:00 27.4 30 Sudoeste 57 Sur 0 -- -- 29
2019-06-04 18:00:00 28.1 28 Sur 53 Sur 0 -- -- 30
2019-06-04 17:00:00 28.7 30 Sur 50 Sur 0 -- -- 29
2019-06-04 16:00:00 29.1 29 Sur 61 Sudoeste 0 -- -- 28
2019-06-04 15:00:00 28.4 30 Sur 63 Sudoeste 0 -- -- 27
2019-06-04 14:00:00 28.1 35 Sur 59 Sudoeste 0 -- -- 28
2019-06-04 13:00:00 27.3 30 Sur 57 Sur 0 -- -- 31
2019-06-04 12:00:00 26.1 31 Sur 49 Sur 0 -- -- 34
2019-06-04 11:00:00 25 24 Sur 44 Sur 0 -- -- 37
2019-06-04 10:00:00 23.7 27 Sudoeste 41 Sudoeste 0 -- -- 37
2019-06-04 09:00:00 21.5 26 Sur 39 Sur 0 -- -- 40
2019-06-04 08:00:00 19.3 21 Sur 32 Sur 0 -- -- 42
2019-06-04 07:00:00 16.7 6 Sudoeste 19 Sudoeste 0 -- -- 49
2019-06-04 06:00:00 17.7 14 Sudoeste 28 Sur 0 -- -- 45
2019-06-04 05:00:00 19.1 14 Sur 27 Sur 0 -- -- 39
2019-06-04 04:00:00 17.4 8 Sudoeste 18 Oeste 0 -- -- 37
2019-06-04 03:00:00 17.8 13 Oeste 19 Oeste 0 -- -- 34
2019-06-04 02:00:00 16.8 9 Sudoeste 12 Sudoeste 0 -- -- 37
2019-06-04 01:00:00 18.1 7 Sur 13 Oeste 0 -- -- 34
2019-06-04 00:00:00 19.1 10 Sudoeste 14 Oeste 0 -- -- 32
2019-06-03 23:00:00 20.5 10 Sudoeste 19 Sudoeste 0 -- -- 31
2019-06-03 22:00:00 25.7 15 Sur 30 Sudoeste 0 -- -- 20
2019-06-03 21:00:00 28.1 19 Sur 38 Sur 0 -- -- 19
2019-06-03 20:00:00 29.9 28 Sur 46 Sudoeste 0 -- -- 18
2019-06-03 19:00:00 30.8 32 Sur 46 Sur 0 -- -- 17
2019-06-03 18:00:00 31.3 32 Sur 53 Sudoeste 0 -- -- 19
2019-06-03 17:00:00 31.7 33 Sudoeste 51 Sudoeste 0 -- -- 19
2019-06-03 16:00:00 31.4 30 Sudoeste 55 Sudoeste 0 -- -- 21
2019-06-03 15:00:00 31 29 Sudoeste 45 Sudoeste 0 -- -- 23
2019-06-03 14:00:00 30.5 26 Sudoeste 47 Sudoeste 0 -- -- 24
2019-06-03 13:00:00 29.6 23 Sur 35 Sur 0 -- -- 26
2019-06-03 12:00:00 28.3 10 Sur 25 Sudoeste 0 -- -- 29
2019-06-03 11:00:00 26.5 12 Sudoeste 26 Sur 0 -- -- 32
2019-06-03 10:00:00 24.1 4 Sur 23 Sudoeste 0 -- -- 35
2019-06-03 09:00:00 22 12 Sudoeste 24 Sudoeste 0 -- -- 38
2019-06-03 08:00:00 19.6 13 Sudoeste 27 Sudoeste 0 -- -- 43
2019-06-03 07:00:00 17.6 11 Oeste 20 Oeste 0 -- -- 47
2019-06-03 06:00:00 18 8 Oeste 22 Oeste 0 -- -- 48
2019-06-03 05:00:00 17.9 13 Oeste 20 Sudoeste 0 -- -- 50
2019-06-03 04:00:00 19.1 14 Oeste 20 Oeste 0 -- -- 47
2019-06-03 03:00:00 17.7 13 Oeste 19 Oeste 0 -- -- 52
2019-06-03 02:00:00 17.2 10 Sudoeste 15 Sudoeste 0 -- -- 54
2019-06-03 01:00:00 19.5 2 Sudeste 12 Oeste 0 -- -- 49
2019-06-03 00:00:00 21.4 9 Oeste 44 Oeste 0 -- -- 44
2019-06-02 23:00:00 23.6 26 Oeste 47 Oeste 0 -- -- 39
2019-06-02 22:00:00 24.9 12 Sudoeste 21 Sudoeste 0 -- -- 33
2019-06-02 21:00:00 26.7 9 Sudoeste 14 Sudoeste 0 -- -- 35
2019-06-02 20:00:00 29.2 9 Oeste 20 Sudoeste 0 -- -- 27
2019-06-02 19:00:00 30.7 17 Sudoeste 31 Sudoeste 0 -- -- 22
2019-06-02 18:00:00 31.8 12 Sudoeste 24 Sudoeste 0 -- -- 21
2019-06-02 17:00:00 32.1 13 Sur 21 Sur 0 -- -- 22
2019-06-02 16:00:00 31.5 9 Oeste 30 Sudoeste 0 -- -- 21
2019-06-02 15:00:00 30.4 8 Sudeste 26 Sur 0 -- -- 24
2019-06-02 14:00:00 30.8 6 Sudoeste 22 Sudoeste 0 -- -- 25
2019-06-02 13:00:00 29.4 7 Sur 21 Sur 0 -- -- 27
2019-06-02 12:00:00 27.5 12 Sur 27 Sur 0 -- -- 29
2019-06-02 11:00:00 25.3 17 Sur 31 Sudoeste 0 -- -- 34
2019-06-02 10:00:00 23.3 16 Sur 32 Sur 0 -- -- 37
2019-06-02 09:00:00 20.9 19 Sur 28 Sudoeste 0 -- -- 40
2019-06-02 08:00:00 15.7 13 Oeste 22 Oeste 0 -- -- 53
2019-06-02 07:00:00 12.9 9 Sudoeste 15 Oeste 0 -- -- 61
2019-06-02 06:00:00 12 2 Oeste 8 Sudeste 0 -- -- 67
2019-06-02 05:00:00 13.5 2 Norte 4 Norte 0 -- -- 63
2019-06-02 04:00:00 14.3 2 Norte 11 Sur 0 -- -- 60
2019-06-02 03:00:00 15.2 2 Norte 15 Oeste 0 -- -- 58
2019-06-02 02:00:00 15.4 12 Sudoeste 16 Sudoeste 0 -- -- 58
2019-06-02 01:00:00 16.4 5 Sur 9 Sur 0 -- -- 55
2019-06-02 00:00:00 17.9 3 Sudoeste 5 Sudoeste 0 -- -- 50
2019-06-01 23:00:00 21.4 0 Calma 10 Norte 0 -- -- 42
2019-06-01 22:00:00 25.4 8 Nordeste 16 Nordeste 0 -- -- 33
2019-06-01 21:00:00 28.3 9 Nordeste 17 Nordeste 0 -- -- 27
2019-06-01 20:00:00 31 3 Noroeste 13 Noroeste 0 -- -- 19
2019-06-01 19:00:00 31.5 8 Oeste 23 Oeste 0 -- -- 19
2019-06-01 18:00:00 31.5 6 Sur 20 Este 0 -- -- 20
2019-06-01 17:00:00 30.7 5 Norte 21 Oeste 0 -- -- 20
2019-06-01 16:00:00 30.7 12 Oeste 19 Sudoeste 0 -- -- 21
2019-06-01 15:00:00 30.3 10 Sudoeste 23 Sur 0 -- -- 21
2019-06-01 14:00:00 29.1 7 Sur 16 Sudoeste 0 -- -- 26
2019-06-01 13:00:00 27.9 9 Sudoeste 22 Oeste 0 -- -- 30
2019-06-01 12:00:00 26.4 10 Sur 19 Sudoeste 0 -- -- 33
2019-06-01 11:00:00 23 5 Norte 11 Norte 0 -- -- 41
2019-06-01 10:00:00 19.1 6 Nordeste 12 Norte 0 -- -- 47
2019-06-01 09:00:00 16 6 Nordeste 10 Nordeste 0 -- -- 53
2019-06-01 08:00:00 13.3 2 Nordeste 8 Sudoeste 0 -- -- 64
2019-06-01 07:00:00 9.4 3 Sudoeste 6 Sur 0 -- -- 75
2019-06-01 06:00:00 10.2 0 Calma 4 Sudoeste 0 -- -- 70
2019-06-01 05:00:00 11.7 0 Calma 12 Sudoeste 0 -- -- 63
2019-06-01 04:00:00 13.1 9 Sudoeste 16 Sudoeste 0 -- -- 56
2019-06-01 03:00:00 13.4 12 Sudoeste 17 Sudoeste 0 -- -- 55
2019-06-01 02:00:00 13.4 9 Sudoeste 14 Sudoeste 0 -- -- 55
2019-06-01 01:00:00 14.2 9 Sudoeste 12 Sudoeste 0 -- -- 52
2019-06-01 00:00:00 16.1 6 Sudoeste 9 Oeste 0 -- -- 48
2019-05-31 23:00:00 20.2 3 Nordeste 14 Norte 0 -- -- 39
2019-05-31 22:00:00 22.8 9 Nordeste 17 Nordeste 0 -- -- 33
2019-05-31 21:00:00 25.6 14 Nordeste 28 Nordeste 0 -- -- 30
2019-05-31 20:00:00 28.1 13 Nordeste 22 Nordeste 0 -- -- 21
2019-05-31 19:00:00 28.8 6 Nordeste 17 Este 0 -- -- 19
2019-05-31 18:00:00 29 7 Este 22 Norte 0 -- -- 15
2019-05-31 17:00:00 28.9 8 Nordeste 20 Nordeste 0 -- -- 17
2019-05-31 16:00:00 28.7 10 Nordeste 20 Nordeste 0 -- -- 19
2019-05-31 15:00:00 27.9 6 Nordeste 21 Nordeste 0 -- -- 19
2019-05-31 14:00:00 27.1 8 Este 15 Nordeste 0 -- -- 23
2019-05-31 13:00:00 26 8 Noroeste 17 Noroeste 0 -- -- 29
2019-05-31 12:00:00 23.9 4 Nordeste 15 Este 0 -- -- 33
2019-05-31 11:00:00 22.6 6 Nordeste 17 Norte 0 -- -- 37
2019-05-31 10:00:00 20.9 3 Sur 10 Oeste 0 -- -- 44
2019-05-31 09:00:00 16.9 9 Oeste 17 Oeste 0 -- -- 56
2019-05-31 08:00:00 12.8 14 Sudoeste 19 Sudoeste 0 -- -- 64
2019-05-31 07:00:00 10 17 Sudoeste 22 Oeste 0 -- -- 72
2019-05-31 06:00:00 10.8 14 Sudoeste 19 Sudoeste 0 -- -- 69
2019-05-31 05:00:00 11 13 Sudoeste 24 Oeste 0 -- -- 68
2019-05-31 04:00:00 11.3 16 Sudoeste 20 Sudoeste 0 -- -- 66
2019-05-31 03:00:00 10.7 14 Sudoeste 19 Sudoeste 0 -- -- 67
2019-05-31 02:00:00 11.6 14 Sudoeste 17 Sudoeste 0 -- -- 63
2019-05-31 01:00:00 11.9 4 Sur 9 Sur 0 -- -- 56
2019-05-31 00:00:00 13.4 3 Sudoeste 12 Sudoeste 0 -- -- 49
2019-05-30 23:00:00 16 2 Sudoeste 5 Sudoeste 0 -- -- 42
2019-05-30 22:00:00 20.6 3 Nordeste 20 Norte 0 -- -- 30
2019-05-30 21:00:00 23.3 10 Norte 27 Noroeste 0 -- -- 26
2019-05-30 20:00:00 25.2 14 Noroeste 26 Noroeste 0 -- -- 23
2019-05-30 19:00:00 26.2 12 Noroeste 30 Noroeste 0 -- -- 21
2019-05-30 18:00:00 26.6 15 Noroeste 29 Noroeste 0 -- -- 19
2019-05-30 17:00:00 26.7 13 Noroeste 30 Norte 0 -- -- 20
2019-05-30 16:00:00 26.5 10 Norte 30 Noroeste 0 -- -- 22
2019-05-30 15:00:00 25.6 12 Noroeste 24 Norte 0 -- -- 27
2019-05-30 14:00:00 24.7 12 Norte 26 Nordeste 0 -- -- 32
2019-05-30 13:00:00 23.1 11 Norte 23 Norte 0 -- -- 33
2019-05-30 12:00:00 20.6 10 Nordeste 22 Norte 0 -- -- 41
2019-05-30 11:00:00 19.2 7 Norte 17 Norte 0 -- -- 44
2019-05-30 10:00:00 17.4 6 Norte 13 Norte 0 -- -- 49
2019-05-30 09:00:00 14.3 3 Sur 11 Sudoeste 0 -- -- 57
2019-05-30 08:00:00 9.5 5 Sudoeste 13 Oeste 0 -- -- 73
2019-05-30 07:00:00 6.5 8 Sudoeste 11 Sudoeste 0 -- -- 80
2019-05-30 06:00:00 7.1 5 Sudeste 10 Oeste 0 -- -- 77
2019-05-30 05:00:00 7.4 6 Sudoeste 15 Sudoeste 0 -- -- 76
2019-05-30 04:00:00 7.3 5 Sur 12 Sudoeste 0 -- -- 75
2019-05-30 03:00:00 9 0 Calma 9 Sudeste 0 -- -- 70
2019-05-30 02:00:00 10.1 4 Oeste 11 Oeste 0 -- -- 66
2019-05-30 01:00:00 11.3 5 Este 12 Oeste 0 -- -- 63
2019-05-30 00:00:00 10.8 5 Oeste 10 Oeste 0 -- -- 66
2019-05-29 23:00:00 12.8 4 Oeste 19 Noroeste 0 -- -- 59
2019-05-29 22:00:00 14.6 6 Noroeste 18 Noroeste 0 -- -- 54
2019-05-29 21:00:00 16.9 12 Norte 29 Norte 0 -- -- 47
2019-05-29 20:00:00 18.8 10 Noroeste 24 Noroeste 0 -- -- 45
2019-05-29 19:00:00 19.3 13 Noroeste 30 Oeste 0 -- -- 43
2019-05-29 18:00:00 19.7 15 Noroeste 30 Norte 0 -- -- 42
2019-05-29 17:00:00 19.9 15 Noroeste 36 Noroeste 0 -- -- 42
2019-05-29 16:00:00 19.8 14 Norte 29 Norte 0 -- -- 43
2019-05-29 15:00:00 18.6 15 Norte 32 Norte 0 -- -- 44
2019-05-29 14:00:00 17.5 14 Norte 31 Nordeste 0 -- -- 47
2019-05-29 13:00:00 14.8 12 Norte 30 Norte 0 -- -- 53
2019-05-29 12:00:00 14.2 11 Norte 26 Norte 0 -- -- 54
2019-05-29 11:00:00 12.6 10 Norte 17 Nordeste 0 -- -- 61
2019-05-29 10:00:00 11.3 8 Norte 16 Nordeste 0 -- -- 62
2019-05-29 09:00:00 10.4 5 Nordeste 9 Este 0 -- -- 63
2019-05-29 08:00:00 7.6 2 Sudoeste 5 Sudoeste 0 -- -- 74
2019-05-29 07:00:00 3.6 3 Sudoeste 5 Sudoeste 0 -- -- 80
2019-05-29 06:00:00 4.7 0 Calma 8 Sudoeste 0 -- -- 77
2019-05-29 05:00:00 5.5 2 Sur 5 Norte 0 -- -- 71
2019-05-29 04:00:00 7.3 2 Norte 8 Norte 0 -- -- 66
2019-05-29 03:00:00 8 4 Norte 15 Norte 0 -- -- 64
2019-05-29 02:00:00 8.5 7 Noroeste 20 Norte 0 -- -- 64
2019-05-29 01:00:00 9.2 7 Norte 12 Norte 0 -- -- 64
2019-05-29 00:00:00 10 9 Norte 16 Norte 0 -- -- 60
2019-05-28 23:00:00 10.9 10 Norte 18 Norte 0 -- -- 53
2019-05-28 22:00:00 11.9 9 Norte 25 Norte 0 -- -- 52
2019-05-28 21:00:00 13.9 13 Norte 26 Norte 0 -- -- 48
2019-05-28 20:00:00 15 16 Norte 36 Norte 0 -- -- 44
2019-05-28 19:00:00 16.8 17 Noroeste 36 Norte 0 -- -- 42
2019-05-28 18:00:00 18 18 Norte 35 Norte 0 -- -- 39
2019-05-28 17:00:00 18.6 20 Norte 36 Norte 0 -- -- 41
2019-05-28 16:00:00 19.3 10 Norte 30 Norte 0 -- -- 39
2019-05-28 15:00:00 18.5 12 Norte 32 Norte 0 -- -- 39
2019-05-28 14:00:00 18 11 Noroeste 27 Noroeste 0 -- -- 37
2019-05-28 13:00:00 16.5 14 Norte 28 Norte 0 -- -- 39
2019-05-28 12:00:00 15.2 10 Norte 25 Norte 0 -- -- 46
2019-05-28 11:00:00 13.5 9 Norte 22 Nordeste 0 -- -- 51
2019-05-28 10:00:00 11.8 6 Norte 16 Norte 0 -- -- 56
2019-05-28 09:00:00 10.2 7 Norte 14 Norte 0 -- -- 62
2019-05-28 08:00:00 5.9 5 Sudoeste 8 Oeste 0 -- -- 83
2019-05-28 07:00:00 5 3 Sudoeste 6 Sudoeste 0 -- -- 82
2019-05-28 06:00:00 6.2 0 Calma 3 Sudoeste 0 -- -- 78
2019-05-28 05:00:00 7.1 2 Sur 10 Norte 0 -- -- 77
2019-05-28 04:00:00 8.3 3 Norte 8 Nordeste 0 -- -- 77
2019-05-28 03:00:00 10.1 4 Nordeste 14 Norte 0 -- -- 74
2019-05-28 02:00:00 10.8 5 Norte 19 Nordeste 0 -- -- 74
2019-05-28 01:00:00 12 9 Norte 19 Nordeste 0 -- -- 71
2019-05-28 00:00:00 13.1 6 Norte 21 Norte 0 -- -- 69
2019-05-27 23:00:00 14.3 9 Norte 21 Norte 0 -- -- 66
2019-05-27 22:00:00 16 13 Noroeste 24 Norte 0 -- -- 59
2019-05-27 21:00:00 18 15 Norte 27 Norte 0 -- -- 52
2019-05-27 20:00:00 18.7 14 Norte 29 Norte 0 -- -- 50
2019-05-27 19:00:00 20.4 16 Norte 34 Norte 0 -- -- 47
2019-05-27 18:00:00 20.8 18 Noroeste 32 Norte 0 -- -- 46
2019-05-27 17:00:00 22.5 11 Norte 27 Noroeste 0 -- -- 42
2019-05-27 16:00:00 23.4 10 Norte 22 Norte 0 -- -- 39
2019-05-27 15:00:00 23.6 10 Norte 23 Noroeste 0 -- -- 37
2019-05-27 14:00:00 -- -- -- -- -- -- -- -- --
2019-05-27 13:00:00 -- -- -- -- -- -- -- -- --
2019-05-27 12:00:00 -- -- -- -- -- -- -- -- --
2019-05-27 11:00:00 -- -- -- -- -- -- -- -- --
2019-05-27 10:00:00 -- -- -- -- -- -- -- -- --
2019-05-27 09:00:00 -- -- -- -- -- -- -- -- --
2019-05-27 08:00:00 -- -- -- -- -- -- -- -- --
2019-05-27 07:00:00 -- -- -- -- -- -- -- -- --
2019-05-27 06:00:00 -- -- -- -- -- -- -- -- --
2019-05-27 05:00:00 -- -- -- -- -- -- -- -- --
2019-05-27 04:00:00 -- -- -- -- -- -- -- -- --
2019-05-27 03:00:00 -- -- -- -- -- -- -- -- --
2019-05-27 02:00:00 -- -- -- -- -- -- -- -- --
2019-05-27 01:00:00 -- -- -- -- -- -- -- -- --
2019-05-27 00:00:00 -- -- -- -- -- -- -- -- --